Time;durP1;ratioP1;P1;durP2;ratioP2;P2;SDS_P1;SDS_P2;PMS_P1;PMS_P2;Temp;Humidity;BMP_temperature;BMP_pressure;BME280_temperature;BME280_humidity;BME280_pressure;Samples;Min_cycle;Max_cycle;Signal;HPM_P1;HPM_P2
2022/07/23 00:01:53;;;;;;;7.10;6.60;;;23.70;91.60;;;;;;5120027;28;20446;-80
2022/07/23 00:04:24;;;;;;;7.23;6.63;;;23.70;91.70;;;;;;5119295;28;20978;-83
2022/07/23 00:06:52;;;;;;;6.07;5.67;;;23.70;91.60;;;;;;5119506;28;20474;-82
2022/07/23 00:09:20;;;;;;;6.00;5.50;;;23.60;91.70;;;;;;5119380;28;20458;-82
2022/07/23 00:11:47;;;;;;;6.20;5.77;;;23.50;91.40;;;;;;5119927;28;20457;-80
2022/07/23 00:14:14;;;;;;;6.03;5.63;;;23.60;91.30;;;;;;5120497;28;20455;-81
2022/07/23 00:16:46;;;;;;;4.00;3.80;;;23.40;91.10;;;;;;5122540;28;20450;-79
2022/07/23 00:19:13;;;;;;;4.57;4.20;;;23.40;91.00;;;;;;5128131;28;20437;-79
2022/07/23 00:21:43;;;;;;;5.07;4.67;;;23.40;90.40;;;;;;5129746;28;20445;-81
2022/07/23 00:24:12;;;;;;;5.23;4.83;;;23.40;90.50;;;;;;5129619;28;20475;-79
2022/07/23 00:26:43;;;;;;;4.63;4.33;;;23.40;90.40;;;;;;5129276;28;20496;-80
2022/07/23 00:29:16;;;;;;;4.87;4.53;;;23.40;90.60;;;;;;5128220;28;20436;-82
2022/07/23 00:31:48;;;;;;;5.77;5.37;;;23.30;90.90;;;;;;5124727;28;20507;-82
2022/07/23 00:37:07;;;;;;;5.40;5.00;;;23.20;91.70;;;;;;5116582;28;20446;-82
2022/07/23 00:39:47;;;;;;;6.30;5.70;;;23.10;92.80;;;;;;5122072;28;20446;-81
2022/07/23 00:42:14;;;;;;;4.67;4.37;;;22.90;93.60;;;;;;5119709;28;20477;-83
2022/07/23 00:44:48;;;;;;;7.40;5.17;;;22.70;94.20;;;;;;5118021;28;20504;-82
2022/07/23 00:47:37;;;;;;;5.20;4.83;;;22.60;94.70;;;;;;5099620;28;20481;-82
2022/07/23 00:50:13;;;;;;;5.07;4.73;;;22.50;95.60;;;;;;5102824;28;20434;-82
2022/07/23 00:52:45;;;;;;;5.80;5.40;;;22.50;95.70;;;;;;5118002;28;20488;-81
2022/07/23 00:55:17;;;;;;;7.93;5.20;;;22.40;95.60;;;;;;5118622;28;20863;-81
2022/07/23 00:57:47;;;;;;;5.00;4.70;;;22.20;95.70;;;;;;5118878;28;20520;-82
2022/07/23 01:00:27;;;;;;;5.33;4.83;;;22.20;96.10;;;;;;5099776;28;20446;-81
2022/07/23 01:02:55;;;;;;;5.33;4.90;;;22.10;96.30;;;;;;5118516;28;20813;-81
2022/07/23 01:08:18;;;;;;;5.50;5.00;;;22.10;96.30;;;;;;5095028;28;20489;-81
2022/07/23 01:11:00;;;;;;;5.37;5.07;;;22.10;96.50;;;;;;5118587;28;20542;-82
2022/07/23 01:19:28;;;;;;;5.10;4.63;;;22.20;95.70;;;;;;5088064;28;20450;-81
2022/07/23 01:22:00;;;;;;;4.93;4.47;;;22.20;95.50;;;;;;5098448;28;20454;-82
2022/07/23 01:24:34;;;;;;;4.40;4.10;;;22.30;95.30;;;;;;5117431;28;20526;-82
2022/07/23 01:27:05;;;;;;;5.20;4.80;;;22.20;94.90;;;;;;5118354;28;20473;-82
2022/07/23 01:29:32;;;;;;;5.70;5.10;;;22.20;95.00;;;;;;5121172;28;20453;-82
2022/07/23 01:31:58;;;;;;;5.40;5.00;;;22.20;95.10;;;;;;5120132;28;20445;-82
2022/07/23 01:34:25;;;;;;;4.27;3.93;;;22.30;94.90;;;;;;5117846;28;20541;-82
2022/07/23 01:36:55;;;;;;;5.10;4.70;;;22.30;94.90;;;;;;5117576;28;20580;-81
2022/07/23 01:39:23;;;;;;;4.90;4.50;;;22.40;94.90;;;;;;5099168;28;20474;-82
2022/07/23 01:41:51;;;;;;;4.87;4.57;;;22.50;94.90;;;;;;5118173;28;20536;-83
2022/07/23 01:44:20;;;;;;;4.27;3.97;;;22.40;96.50;;;;;;5116722;28;20477;-82
2022/07/23 01:46:49;;;;;;;4.40;4.10;;;22.10;96.60;;;;;;5098618;28;20486;-81
2022/07/23 01:49:22;;;;;;;4.63;4.23;;;22.20;96.70;;;;;;5117570;28;20450;-82
2022/07/23 01:52:13;;;;;;;4.90;4.53;;;22.20;96.60;;;;;;5115903;28;20450;-81
2022/07/23 01:55:24;;;;;;;5.50;5.13;;;22.30;96.50;;;;;;5116990;28;20480;-82
2022/07/23 02:22:15;;;;;;;5.03;4.63;;;22.00;97.40;;;;;;4937967;28;20485;-80
2022/07/23 02:24:42;;;;;;;5.70;5.30;;;22.00;97.70;;;;;;4971805;28;20482;-79
2022/07/23 02:27:08;;;;;;;5.93;5.30;;;22.10;97.80;;;;;;5025991;28;20488;-80
2022/07/23 02:29:35;;;;;;;4.80;4.50;;;22.00;98.00;;;;;;5088353;28;20448;-80
2022/07/23 02:32:03;;;;;;;5.47;5.00;;;21.90;98.60;;;;;;5117234;28;20441;-80
2022/07/23 02:34:30;;;;;;;6.27;5.27;;;21.80;99.00;;;;;;5117764;28;20472;-80
2022/07/23 02:36:57;;;;;;;6.20;5.80;;;21.60;99.60;;;;;;5117228;28;20492;-80
2022/07/23 02:39:24;;;;;;;5.80;5.40;;;21.60;99.90;;;;;;5117222;28;20449;-80
2022/07/23 02:42:37;;;;;;;5.57;5.10;;;21.50;99.90;;;;;;5117264;28;20456;-80
2022/07/23 02:45:05;;;;;;;5.17;4.77;;;21.30;99.90;;;;;;5116391;28;20477;-79
2022/07/23 02:47:33;;;;;;;5.93;5.40;;;21.30;99.90;;;;;;5117537;28;20449;-79
2022/07/23 02:50:00;;;;;;;6.43;5.93;;;21.30;99.90;;;;;;5117199;28;20527;-79
2022/07/23 02:52:26;;;;;;;6.00;5.60;;;21.30;99.90;;;;;;5117152;28;20803;-79
2022/07/23 02:54:53;;;;;;;5.63;5.23;;;21.20;99.90;;;;;;5116380;28;20468;-79
2022/07/23 02:57:20;;;;;;;5.70;5.20;;;21.20;99.90;;;;;;5118434;28;20480;-80
2022/07/23 02:59:47;;;;;;;6.23;5.73;;;21.30;99.90;;;;;;5120542;28;20962;-80
2022/07/23 03:02:13;;;;;;;5.83;5.40;;;21.30;99.90;;;;;;5121196;28;20448;-80
2022/07/23 03:04:43;;;;;;;5.77;5.30;;;21.30;99.90;;;;;;5121043;28;20470;-80
2022/07/23 03:07:10;;;;;;;5.80;5.40;;;21.40;99.90;;;;;;5121093;28;20448;-80
2022/07/23 03:09:37;;;;;;;6.37;5.77;;;21.50;99.90;;;;;;5122367;28;20455;-79
2022/07/23 03:12:04;;;;;;;5.90;5.40;;;21.60;99.90;;;;;;5121187;28;20460;-80
2022/07/23 03:14:31;;;;;;;5.77;5.37;;;21.60;99.90;;;;;;5120657;28;20481;-80
2022/07/23 03:16:59;;;;;;;5.40;5.00;;;21.60;99.90;;;;;;5119930;28;20481;-79
2022/07/23 03:19:26;;;;;;;6.20;5.70;;;21.60;99.90;;;;;;5120220;28;20961;-80
2022/07/23 03:21:54;;;;;;;6.23;5.73;;;21.50;99.90;;;;;;5120733;28;20537;-80
2022/07/23 03:24:23;;;;;;;6.97;6.27;;;21.60;99.90;;;;;;5121235;28;20836;-80
2022/07/23 03:26:50;;;;;;;6.87;6.30;;;21.70;99.90;;;;;;5120651;28;20461;-79
2022/07/23 03:29:17;;;;;;;5.97;5.47;;;21.80;99.90;;;;;;5120333;28;20453;-80
2022/07/23 03:31:43;;;;;;;6.67;6.17;;;21.70;99.90;;;;;;5120137;28;20946;-80
2022/07/23 03:34:10;;;;;;;6.40;5.80;;;21.80;99.90;;;;;;5120187;28;20495;-80
2022/07/23 03:36:37;;;;;;;7.00;6.43;;;21.80;99.90;;;;;;5119483;28;20452;-80
2022/07/23 03:39:05;;;;;;;6.33;5.90;;;21.90;99.90;;;;;;5119792;28;20468;-80
2022/07/23 03:41:32;;;;;;;5.70;5.30;;;21.80;99.90;;;;;;5120088;28;20449;-80
2022/07/23 03:43:59;;;;;;;6.07;5.57;;;21.90;99.90;;;;;;5119875;28;20478;-80
2022/07/23 03:46:25;;;;;;;6.23;5.83;;;21.70;99.90;;;;;;5120146;28;20456;-80
2022/07/23 03:48:52;;;;;;;6.20;5.70;;;21.70;99.90;;;;;;5119794;28;20452;-80
2022/07/23 03:51:19;;;;;;;6.63;5.97;;;21.70;99.90;;;;;;5120101;28;20446;-80
2022/07/23 03:53:46;;;;;;;7.37;6.80;;;21.80;99.90;;;;;;5119886;28;20473;-80
2022/07/23 03:56:14;;;;;;;7.13;6.43;;;21.70;99.90;;;;;;5118580;28;20844;-80
2022/07/23 03:58:41;;;;;;;6.27;5.73;;;21.60;99.90;;;;;;5120228;28;20477;-79
2022/07/23 04:01:08;;;;;;;7.27;6.77;;;21.50;99.90;;;;;;5122058;28;20452;-79
2022/07/23 04:03:35;;;;;;;6.40;5.90;;;21.50;99.90;;;;;;5120026;28;21001;-80
2022/07/23 04:06:01;;;;;;;6.90;6.13;;;21.60;99.90;;;;;;5118815;28;20450;-80
2022/07/23 04:08:28;;;;;;;6.00;5.60;;;21.70;99.90;;;;;;5118556;28;20461;-80
2022/07/23 04:10:55;;;;;;;6.73;6.13;;;21.60;99.90;;;;;;5119595;28;20836;-80
2022/07/23 04:13:24;;;;;;;7.03;6.53;;;21.60;99.90;;;;;;5119549;28;20450;-80
2022/07/23 04:15:51;;;;;;;6.53;6.10;;;21.70;99.90;;;;;;5118943;28;20449;-79
2022/07/23 04:18:18;;;;;;;7.30;6.60;;;21.80;99.90;;;;;;5118744;28;20505;-80
2022/07/23 04:20:45;;;;;;;7.40;6.80;;;21.80;99.90;;;;;;5119585;28;20453;-80
2022/07/23 04:23:12;;;;;;;5.63;5.20;;;21.90;99.90;;;;;;5119231;28;20473;-80
2022/07/23 04:25:39;;;;;;;6.37;5.87;;;21.90;99.90;;;;;;5119291;28;20824;-80
2022/07/23 04:28:06;;;;;;;6.97;6.37;;;21.90;99.90;;;;;;5119747;28;20446;-80
2022/07/23 04:30:34;;;;;;;5.40;5.00;;;21.80;99.90;;;;;;5118757;28;20453;-80
2022/07/23 04:33:01;;;;;;;5.20;4.90;;;21.80;99.90;;;;;;5119873;28;20449;-80
2022/07/23 04:35:28;;;;;;;6.20;5.70;;;21.80;99.90;;;;;;5118309;28;20478;-80
2022/07/23 04:37:54;;;;;;;6.43;5.93;;;21.80;99.90;;;;;;5118847;28;20849;-80
2022/07/23 04:40:21;;;;;;;7.87;7.27;;;21.90;99.90;;;;;;5119401;28;20456;-79
2022/07/23 04:42:48;;;;;;;6.60;6.10;;;21.90;99.90;;;;;;5119011;28;20447;-80
2022/07/23 04:45:15;;;;;;;6.30;5.73;;;21.90;99.90;;;;;;5118973;28;20997;-80
2022/07/23 04:47:43;;;;;;;7.07;6.50;;;21.90;99.90;;;;;;5107949;28;20448;-79
2022/07/23 04:50:10;;;;;;;6.53;6.10;;;21.90;99.90;;;;;;5122406;28;20457;-80
2022/07/23 04:52:37;;;;;;;6.40;5.90;;;21.90;99.90;;;;;;5127492;28;20445;-77
2022/07/23 04:55:05;;;;;;;6.20;5.60;;;21.80;99.90;;;;;;5131501;28;20470;-77
2022/07/23 04:57:32;;;;;;;6.57;6.07;;;21.80;99.90;;;;;;5119836;28;20485;-79
2022/07/23 04:59:58;;;;;;;7.87;7.17;;;21.70;99.90;;;;;;5118609;28;20472;-80
2022/07/23 05:02:25;;;;;;;6.23;5.83;;;21.90;99.90;;;;;;5118605;28;20461;-79
2022/07/23 05:04:53;;;;;;;6.07;5.67;;;22.00;99.90;;;;;;5118768;28;20480;-80
2022/07/23 05:07:20;;;;;;;6.33;5.83;;;22.00;99.90;;;;;;5118717;28;20457;-79
2022/07/23 05:09:47;;;;;;;6.97;6.40;;;22.20;99.90;;;;;;5118500;28;20821;-80
2022/07/23 05:12:13;;;;;;;9.03;6.97;;;22.20;99.90;;;;;;5118152;28;20856;-80
2022/07/23 05:14:40;;;;;;;7.00;6.40;;;22.30;99.90;;;;;;5117836;28;20477;-79
2022/07/23 05:17:07;;;;;;;7.07;6.57;;;22.40;99.90;;;;;;5114384;28;20450;-80
2022/07/23 05:19:34;;;;;;;7.70;7.00;;;22.50;99.90;;;;;;5117795;28;20471;-79
2022/07/23 05:22:03;;;;;;;7.03;6.37;;;22.60;99.90;;;;;;5117383;28;20452;-80
2022/07/23 05:24:30;;;;;;;8.00;7.30;;;22.60;99.90;;;;;;5119703;28;20462;-80
2022/07/23 05:26:56;;;;;;;7.17;6.67;;;22.70;99.90;;;;;;5118098;28;20468;-80
2022/07/23 05:29:23;;;;;;;7.30;6.60;;;22.90;99.90;;;;;;5118071;28;20441;-79
2022/07/23 05:31:50;;;;;;;7.33;6.63;;;22.90;99.70;;;;;;5117934;28;20450;-80
2022/07/23 05:34:17;;;;;;;7.00;6.40;;;22.90;99.70;;;;;;5116494;28;20469;-79
2022/07/23 05:36:43;;;;;;;7.47;6.97;;;22.80;99.70;;;;;;5116437;28;20447;-80
2022/07/23 05:39:12;;;;;;;7.30;6.80;;;22.80;99.90;;;;;;5118700;28;21032;-78
2022/07/23 05:41:38;;;;;;;7.13;6.60;;;22.90;99.50;;;;;;5117540;28;20468;-80
2022/07/23 06:25:59;;;;;;;7.63;7.13;;;24.30;97.80;;;;;;5044363;26;20557;-85
2022/07/23 06:28:26;;;;;;;8.53;7.87;;;24.40;97.00;;;;;;5087617;28;20503;-87
2022/07/23 06:30:54;;;;;;;7.63;7.00;;;24.40;97.50;;;;;;5093692;28;20443;-89
2022/07/23 06:33:23;;;;;;;8.97;8.27;;;24.50;97.90;;;;;;5097553;28;20449;-87
2022/07/23 06:35:49;;;;;;;7.67;7.10;;;24.30;97.50;;;;;;5096099;28;21046;-87
2022/07/23 06:38:16;;;;;;;7.67;7.17;;;24.10;97.30;;;;;;5095795;28;20488;-88
2022/07/23 06:40:43;;;;;;;7.90;7.30;;;24.00;97.80;;;;;;5096841;28;20461;-88
2022/07/23 06:43:11;;;;;;;7.50;6.80;;;23.80;97.80;;;;;;5095898;28;20443;-87
2022/07/23 06:45:38;;;;;;;8.37;7.70;;;23.80;98.10;;;;;;5095941;28;20480;-87
2022/07/23 06:48:05;;;;;;;6.90;6.40;;;23.80;97.70;;;;;;5095808;28;20453;-88
2022/07/23 06:50:32;;;;;;;6.77;6.37;;;23.80;97.70;;;;;;5096559;28;20534;-87
2022/07/23 06:52:59;;;;;;;7.40;6.77;;;24.00;98.40;;;;;;5096540;28;20450;-87
2022/07/23 06:55:26;;;;;;;6.93;6.53;;;24.00;97.50;;;;;;5096681;28;20467;-87
2022/07/23 06:57:53;;;;;;;7.13;6.63;;;23.90;97.30;;;;;;5095058;28;21025;-87
2022/07/23 07:00:21;;;;;;;7.87;7.17;;;24.00;96.90;;;;;;5081692;28;20452;-87
2022/07/23 07:02:48;;;;;;;7.17;6.47;;;23.90;97.20;;;;;;5094304;28;20452;-87
2022/07/23 07:05:15;;;;;;;7.50;6.90;;;23.80;96.70;;;;;;5083643;28;20500;-88
2022/07/23 07:07:43;;;;;;;7.10;6.60;;;23.90;97.30;;;;;;5075902;28;20891;-88
2022/07/23 07:10:12;;;;;;;7.70;7.00;;;23.80;96.90;;;;;;5075979;28;20485;-88
2022/07/23 07:12:39;;;;;;;7.83;7.33;;;23.80;97.30;;;;;;5074184;28;20475;-87
2022/07/23 07:15:06;;;;;;;7.77;6.97;;;23.80;97.50;;;;;;5073407;28;20464;-88
2022/07/23 07:17:34;;;;;;;7.33;6.77;;;23.80;97.90;;;;;;5073439;28;20956;-88
2022/07/23 07:20:01;;;;;;;8.40;7.80;;;23.90;97.60;;;;;;5074127;28;20528;-87
2022/07/23 07:22:28;;;;;;;8.53;7.90;;;23.80;97.40;;;;;;5073562;28;20503;-87
2022/07/23 07:24:55;;;;;;;8.10;7.50;;;23.80;96.70;;;;;;5072827;28;20478;-87
2022/07/23 07:27:22;;;;;;;7.17;6.67;;;23.80;96.70;;;;;;5072469;28;20539;-87
2022/07/23 07:29:48;;;;;;;7.77;7.17;;;23.60;96.20;;;;;;5074668;28;20518;-87
2022/07/23 07:32:15;;;;;;;7.47;6.87;;;23.50;96.10;;;;;;5070751;28;20494;-87
2022/07/23 07:34:43;;;;;;;6.97;6.40;;;23.60;95.90;;;;;;5072722;28;20469;-87
2022/07/23 07:37:10;;;;;;;7.40;6.70;;;23.70;95.80;;;;;;5072949;28;20448;-88
2022/07/23 07:39:37;;;;;;;7.53;6.60;;;23.70;95.70;;;;;;5066542;28;20485;-87
2022/07/23 07:42:04;;;;;;;7.53;6.80;;;23.70;95.30;;;;;;5072267;28;20448;-87
2022/07/23 07:44:31;;;;;;;7.37;6.87;;;23.60;95.60;;;;;;5072946;28;20475;-87
2022/07/23 07:46:58;;;;;;;7.30;6.77;;;23.70;95.80;;;;;;5073627;28;20444;-88
2022/07/23 07:49:24;;;;;;;7.40;6.90;;;23.80;95.50;;;;;;5074263;28;20456;-87
2022/07/23 07:51:53;;;;;;;7.47;6.20;;;23.60;95.30;;;;;;5076691;28;20459;-87
2022/07/23 07:54:19;;;;;;;7.13;6.63;;;23.70;95.70;;;;;;5079381;28;20468;-84
2022/07/23 07:56:47;;;;;;;7.20;6.60;;;23.80;96.00;;;;;;5073611;28;20436;-87
2022/07/23 07:59:14;;;;;;;7.30;6.80;;;23.90;96.10;;;;;;5073469;28;20503;-86
2022/07/23 08:01:41;;;;;;;7.73;7.13;;;23.90;96.50;;;;;;5075409;28;20456;-86
2022/07/23 08:04:08;;;;;;;7.90;7.10;;;24.00;95.80;;;;;;5094216;28;20883;-87
2022/07/23 08:06:35;;;;;;;7.70;7.10;;;23.80;96.70;;;;;;5093416;28;20458;-87
2022/07/23 08:09:03;;;;;;;7.80;7.20;;;23.70;97.40;;;;;;5114811;28;20463;-87
2022/07/23 08:11:30;;;;;;;7.43;6.90;;;23.70;97.40;;;;;;5116813;28;20463;-86
2022/07/23 08:13:57;;;;;;;7.90;7.10;;;23.70;97.80;;;;;;5093398;28;20472;-87
2022/07/23 08:16:23;;;;;;;7.17;6.53;;;23.70;97.30;;;;;;5073121;28;20755;-86
2022/07/23 08:18:50;;;;;;;7.40;6.63;;;23.70;96.60;;;;;;5075820;28;20883;-87
2022/07/23 08:21:17;;;;;;;6.87;6.27;;;23.80;97.00;;;;;;5093968;28;20965;-88
2022/07/23 08:23:44;;;;;;;7.53;6.83;;;24.00;96.60;;;;;;5093875;28;21144;-89
2022/07/23 08:26:13;;;;;;;7.53;6.93;;;24.10;95.50;;;;;;5101992;28;20529;-86
2022/07/23 08:28:40;;;;;;;7.60;6.93;;;24.10;95.60;;;;;;5094172;28;20560;-87
2022/07/23 08:31:06;;;;;;;8.40;7.80;;;24.20;95.20;;;;;;5090139;28;20442;-87
2022/07/23 08:33:33;;;;;;;7.50;6.90;;;24.20;95.30;;;;;;5093226;28;20551;-86
2022/07/23 08:36:02;;;;;;;6.70;6.20;;;24.20;95.00;;;;;;5113219;28;20476;-87
2022/07/23 08:38:29;;;;;;;7.73;7.23;;;24.20;95.30;;;;;;5113562;28;20488;-85
2022/07/23 08:40:59;;;;;;;6.87;6.37;;;24.40;95.40;;;;;;5094062;28;20479;-88
2022/07/23 08:43:29;;;;;;;7.13;6.63;;;24.50;94.40;;;;;;5098502;28;20480;-86
2022/07/23 08:45:58;;;;;;;6.30;5.80;;;24.80;94.00;;;;;;5089084;28;20470;-87
2022/07/23 08:48:27;;;;;;;7.20;6.60;;;25.00;93.60;;;;;;5087552;28;20450;-85
2022/07/23 08:50:56;;;;;;;7.50;7.00;;;25.10;94.00;;;;;;5089258;28;20472;-86
2022/07/23 08:53:24;;;;;;;6.43;6.03;;;24.90;92.70;;;;;;5087900;28;20539;-86
2022/07/23 08:55:52;;;;;;;7.63;6.87;;;25.00;92.50;;;;;;5089622;28;20521;-87
2022/07/23 08:58:20;;;;;;;7.37;6.87;;;25.20;93.00;;;;;;5089575;28;20457;-87
2022/07/23 09:00:49;;;;;;;6.77;6.23;;;25.50;92.80;;;;;;5089688;28;20452;-86
2022/07/23 09:03:17;;;;;;;7.37;6.77;;;25.70;92.50;;;;;;5089429;28;20530;-86
2022/07/23 09:05:44;;;;;;;6.57;6.10;;;25.80;91.20;;;;;;5090153;28;20551;-87
2022/07/23 09:08:13;;;;;;;7.83;7.27;;;26.10;91.20;;;;;;5089540;28;20439;-87
2022/07/23 09:10:46;;;;;;;8.10;7.50;;;26.10;90.90;;;;;;5090155;28;20523;-86
2022/07/23 09:13:34;;;;;;;7.87;7.13;;;26.50;91.50;;;;;;5089113;28;20482;-87
2022/07/23 09:16:05;;;;;;;6.57;6.07;;;26.60;90.30;;;;;;5087994;28;20434;-86
2022/07/23 09:18:39;;;;;;;6.97;6.33;;;26.60;90.30;;;;;;5088552;28;20489;-86
2022/07/23 09:21:10;;;;;;;7.83;7.13;;;26.50;88.20;;;;;;5089979;28;20484;-87
2022/07/23 09:23:42;;;;;;;7.30;6.80;;;26.80;89.60;;;;;;5089573;28;20572;-86
2022/07/23 09:26:20;;;;;;;7.70;7.10;;;27.10;88.30;;;;;;5089159;28;20485;-87
2022/07/23 09:28:58;;;;;;;7.07;6.57;;;26.60;86.50;;;;;;5089895;28;20949;-88
2022/07/23 09:31:33;;;;;;;6.80;6.20;;;26.80;87.60;;;;;;5091111;28;20452;-87
2022/07/23 09:34:09;;;;;;;5.63;5.23;;;26.90;84.30;;;;;;5090309;28;20470;-87
2022/07/23 09:36:37;;;;;;;7.53;6.93;;;27.00;84.50;;;;;;5090386;28;20466;-87
2022/07/23 09:39:04;;;;;;;6.57;6.17;;;27.20;83.00;;;;;;5090273;28;20496;-87
2022/07/23 09:41:40;;;;;;;7.57;7.00;;;27.30;82.40;;;;;;5089883;28;20450;-86
2022/07/23 09:44:16;;;;;;;6.63;6.13;;;27.40;83.00;;;;;;5088710;28;20500;-87
2022/07/23 09:46:46;;;;;;;7.93;7.33;;;27.20;82.00;;;;;;5088766;28;20456;-86
2022/07/23 09:49:16;;;;;;;7.07;6.47;;;27.10;82.70;;;;;;5088685;28;20468;-86
2022/07/23 09:51:48;;;;;;;7.53;7.00;;;27.00;83.80;;;;;;5088315;28;20442;-87
2022/07/23 09:54:30;;;;;;;7.07;6.57;;;26.90;85.00;;;;;;5088360;28;20459;-87
2022/07/23 09:56:59;;;;;;;7.87;7.23;;;26.90;84.80;;;;;;5089582;28;20480;-86
2022/07/23 09:59:27;;;;;;;7.50;7.00;;;27.20;85.30;;;;;;5089461;28;20514;-86
2022/07/23 10:01:56;;;;;;;8.33;7.63;;;27.10;86.60;;;;;;5088473;28;20461;-87
2022/07/23 10:04:25;;;;;;;8.30;7.60;;;27.00;84.50;;;;;;5089716;28;20534;-88
2022/07/23 10:06:56;;;;;;;7.13;6.63;;;27.10;83.80;;;;;;5089373;28;20450;-86
2022/07/23 10:09:27;;;;;;;8.73;8.13;;;27.30;84.10;;;;;;5089855;28;20510;-87
2022/07/23 10:12:00;;;;;;;8.43;7.67;;;27.60;84.70;;;;;;5089273;28;20461;-87
2022/07/23 10:14:30;;;;;;;7.87;7.17;;;27.90;82.10;;;;;;5089881;28;20467;-87
2022/07/23 10:16:58;;;;;;;8.33;7.73;;;28.10;82.80;;;;;;5092632;28;20507;-88
2022/07/23 10:19:26;;;;;;;8.13;7.57;;;28.40;83.40;;;;;;5089871;28;20490;-87
2022/07/23 10:21:56;;;;;;;8.50;8.00;;;28.50;80.00;;;;;;5087594;28;20486;-88
2022/07/23 10:24:37;;;;;;;8.50;7.80;;;28.70;79.70;;;;;;5087240;28;20488;-87
2022/07/23 10:27:30;;;;;;;23.53;21.43;;;28.60;77.30;;;;;;5087461;28;20522;-87
2022/07/23 10:30:04;;;;;;;7.93;7.40;;;28.70;77.70;;;;;;5087207;28;20443;-87
2022/07/23 10:32:41;;;;;;;8.30;7.80;;;28.60;76.80;;;;;;5088780;28;20490;-87
2022/07/23 10:35:16;;;;;;;7.23;6.77;;;28.60;76.50;;;;;;5088865;28;20471;-87
2022/07/23 10:37:45;;;;;;;18.53;14.10;;;28.90;75.30;;;;;;5086081;28;20527;-88
2022/07/23 10:40:16;;;;;;;6.67;6.20;;;28.70;76.20;;;;;;5087028;28;20554;-88
2022/07/23 10:42:43;;;;;;;7.97;7.37;;;28.40;76.90;;;;;;5087218;28;20452;-88
2022/07/23 10:45:30;;;;;;;8.30;7.70;;;28.20;78.30;;;;;;5091953;28;20486;-89
2022/07/23 10:48:14;;;;;;;9.03;8.30;;;28.00;79.10;;;;;;5088502;28;20450;-88
2022/07/23 10:50:56;;;;;;;6.30;5.90;;;28.00;79.00;;;;;;5098221;28;20446;-87
2022/07/23 10:54:11;;;;;;;8.10;7.60;;;28.00;79.20;;;;;;5082559;28;20455;-87
2022/07/23 10:57:08;;;;;;;7.40;6.90;;;28.10;79.10;;;;;;5098985;28;20454;-87
2022/07/23 11:00:11;;;;;;;7.90;7.40;;;28.30;78.50;;;;;;5091580;28;20482;-87
2022/07/23 11:02:43;;;;;;;7.50;7.03;;;28.70;76.20;;;;;;5064326;28;20497;-87
2022/07/23 11:05:13;;;;;;;6.73;6.23;;;29.40;77.80;;;;;;5088640;28;20470;-87
2022/07/23 11:08:14;;;;;;;7.07;6.57;;;29.90;75.30;;;;;;5102072;28;20446;-87
2022/07/23 11:10:42;;;;;;;8.00;7.50;;;30.30;74.10;;;;;;5108636;28;20860;-87
2022/07/23 11:13:45;;;;;;;6.77;6.37;;;30.80;70.70;;;;;;5108773;28;20459;-88
2022/07/23 11:16:26;;;;;;;6.87;6.47;;;31.30;67.30;;;;;;5025901;28;20479;-88
2022/07/23 11:19:04;;;;;;;7.33;6.83;;;31.70;66.80;;;;;;5027234;28;20467;-87
2022/07/23 11:21:51;;;;;;;7.60;7.10;;;31.80;66.20;;;;;;5066601;28;20470;-86
2022/07/23 11:24:22;;;;;;;7.13;6.63;;;32.40;64.40;;;;;;5092028;28;20900;-85
2022/07/23 11:26:57;;;;;;;8.00;7.40;;;31.80;62.30;;;;;;5108699;28;20453;-86
2022/07/23 11:29:48;;;;;;;7.77;7.17;;;31.10;64.40;;;;;;5112362;28;20487;-86
2022/07/23 11:32:40;;;;;;;8.10;7.40;;;31.50;64.00;;;;;;5111321;28;20461;-85
2022/07/23 11:35:25;;;;;;;7.40;6.90;;;31.90;63.30;;;;;;5091352;28;20567;-85
2022/07/23 11:37:58;;;;;;;8.20;7.60;;;31.40;63.00;;;;;;5092064;28;20478;-85
2022/07/23 11:40:26;;;;;;;8.50;7.93;;;30.70;63.60;;;;;;5096397;28;20539;-84
2022/07/23 11:42:59;;;;;;;8.43;7.80;;;30.30;64.90;;;;;;5114094;28;20818;-85
2022/07/23 11:45:33;;;;;;;7.30;6.90;;;30.50;65.20;;;;;;5081364;22;20486;-80
2022/07/23 11:48:00;;;;;;;7.50;7.00;;;30.70;65.50;;;;;;5041748;28;20454;-81
2022/07/23 11:50:27;;;;;;;7.90;7.30;;;31.10;65.40;;;;;;5055515;28;20467;-80
2022/07/23 11:52:55;;;;;;;7.07;6.57;;;31.80;65.50;;;;;;5060120;28;20823;-81
2022/07/23 11:55:23;;;;;;;7.50;7.00;;;32.10;62.50;;;;;;5061784;28;20482;-81
2022/07/23 11:57:52;;;;;;;7.60;7.10;;;32.30;61.70;;;;;;5051481;28;20461;-81
2022/07/23 12:00:21;;;;;;;7.83;7.33;;;32.90;61.30;;;;;;5041242;28;20492;-81
2022/07/23 12:02:50;;;;;;;7.37;6.77;;;33.20;59.00;;;;;;5041933;28;20460;-81
2022/07/23 12:05:19;;;;;;;7.10;6.53;;;33.70;58.50;;;;;;5041528;28;20479;-81
2022/07/23 12:07:49;;;;;;;7.93;7.43;;;33.70;57.80;;;;;;5048133;28;20449;-82
2022/07/23 12:10:20;;;;;;;7.40;6.90;;;33.70;56.40;;;;;;5055277;28;20436;-80
2022/07/23 12:12:49;;;;;;;8.70;8.10;;;34.10;56.30;;;;;;5049715;28;20469;-81
2022/07/23 12:15:18;;;;;;;7.53;7.03;;;34.30;55.00;;;;;;5041758;28;20981;-83
2022/07/23 12:17:47;;;;;;;7.57;7.10;;;33.90;55.30;;;;;;5041464;28;20457;-83
2022/07/23 12:20:16;;;;;;;7.00;6.40;;;33.70;54.70;;;;;;5041612;28;20491;-81
2022/07/23 12:22:44;;;;;;;7.67;7.17;;;33.30;54.70;;;;;;5041244;28;20445;-81
2022/07/23 12:25:13;;;;;;;7.50;6.93;;;33.20;56.50;;;;;;5040870;28;20469;-80
2022/07/23 12:27:42;;;;;;;8.17;7.67;;;33.40;56.00;;;;;;5035516;28;20518;-81
2022/07/23 12:30:24;;;;;;;8.10;7.60;;;32.80;55.50;;;;;;5020985;28;20457;-81
2022/07/23 12:32:52;;;;;;;8.10;7.60;;;33.00;56.40;;;;;;5021317;28;20454;-83
2022/07/23 12:35:20;;;;;;;7.80;7.20;;;32.30;56.20;;;;;;5021509;28;20474;-81
2022/07/23 12:37:49;;;;;;;8.27;7.77;;;32.20;58.70;;;;;;5020969;28;20454;-81
2022/07/23 12:40:27;;;;;;;8.63;8.10;;;32.30;57.20;;;;;;5020723;28;20489;-80
2022/07/23 12:42:57;;;;;;;7.63;7.00;;;32.00;58.20;;;;;;5020182;28;20458;-83
2022/07/23 12:45:25;;;;;;;9.37;8.67;;;32.20;57.60;;;;;;5020976;28;20485;-83
2022/07/23 12:47:58;;;;;;;7.70;7.20;;;32.70;59.00;;;;;;5020504;28;20964;-81
2022/07/23 12:50:48;;;;;;;7.83;7.23;;;33.50;55.20;;;;;;5021768;28;20509;-81
2022/07/23 12:53:17;;;;;;;8.17;7.57;;;34.00;53.60;;;;;;5020991;28;20453;-81
2022/07/23 12:55:45;;;;;;;8.50;7.90;;;33.70;53.10;;;;;;5019804;28;21046;-79
2022/07/23 12:58:16;;;;;;;7.83;7.23;;;33.30;52.90;;;;;;5020398;28;20458;-81
2022/07/23 13:01:07;;;;;;;8.20;7.70;;;33.10;54.00;;;;;;5026267;28;20482;-81
2022/07/23 13:03:39;;;;;;;8.50;7.90;;;32.50;55.70;;;;;;5020987;28;20450;-83
2022/07/23 13:06:08;;;;;;;8.73;8.13;;;32.00;56.20;;;;;;5024343;28;20499;-83
2022/07/23 13:08:36;;;;;;;8.10;7.60;;;31.30;57.20;;;;;;5032573;28;20451;-80
2022/07/23 13:11:04;;;;;;;8.67;8.00;;;31.50;58.40;;;;;;5032416;28;20448;-82
2022/07/23 13:13:35;;;;;;;9.30;8.60;;;32.20;59.30;;;;;;5029380;28;20455;-82
2022/07/23 13:16:02;;;;;;;8.40;7.83;;;32.70;56.50;;;;;;5040455;28;20479;-82
2022/07/23 13:18:29;;;;;;;8.53;7.73;;;33.00;55.70;;;;;;5055436;28;20993;-79
2022/07/23 13:20:57;;;;;;;8.90;8.30;;;32.80;54.60;;;;;;5029914;28;20482;-79
2022/07/23 13:23:24;;;;;;;7.63;7.03;;;32.60;55.00;;;;;;5029463;28;20457;-79
2022/07/23 13:25:51;;;;;;;8.07;7.40;;;32.80;54.60;;;;;;5038360;28;20841;-78
2022/07/23 13:28:19;;;;;;;8.60;7.90;;;33.20;54.70;;;;;;5047541;28;20448;-80
2022/07/23 13:30:49;;;;;;;8.57;8.00;;;33.80;54.40;;;;;;5058736;28;20440;-79
2022/07/23 13:33:16;;;;;;;7.40;6.90;;;34.30;53.10;;;;;;5058666;28;20509;-80
2022/07/23 13:35:43;;;;;;;9.20;8.60;;;34.50;51.60;;;;;;5058830;28;20483;-80
2022/07/23 13:38:10;;;;;;;8.57;7.97;;;34.50;52.10;;;;;;5041274;28;20460;-82
2022/07/23 13:40:39;;;;;;;7.70;7.20;;;34.20;51.60;;;;;;5034225;28;20489;-81
2022/07/23 13:43:06;;;;;;;7.90;7.40;;;34.30;51.30;;;;;;5037987;28;20461;-81
2022/07/23 13:45:33;;;;;;;8.63;8.13;;;33.80;51.10;;;;;;5039819;28;21231;-82
2022/07/23 13:48:02;;;;;;;7.40;6.90;;;33.60;51.80;;;;;;5039700;28;20457;-83
2022/07/23 13:50:29;;;;;;;8.00;7.43;;;33.10;51.90;;;;;;5046526;28;20437;-80
2022/07/23 13:52:55;;;;;;;8.97;8.23;;;32.70;52.70;;;;;;5039442;28;20935;-82
2022/07/23 13:55:22;;;;;;;8.90;8.30;;;32.90;53.70;;;;;;5039160;28;20506;-82
2022/07/23 13:57:49;;;;;;;7.87;7.40;;;33.30;52.20;;;;;;5034894;28;20456;-81
2022/07/23 14:00:17;;;;;;;7.80;7.30;;;33.90;51.90;;;;;;5051423;28;20848;-82
2022/07/23 14:02:43;;;;;;;8.27;7.63;;;34.10;50.80;;;;;;5041063;28;20445;-82
2022/07/23 14:05:12;;;;;;;8.87;8.10;;;34.10;50.90;;;;;;5062331;28;20472;-83
2022/07/23 14:07:40;;;;;;;8.43;7.83;;;33.50;51.10;;;;;;5048832;28;20533;-83
2022/07/23 14:10:08;;;;;;;8.30;7.80;;;32.90;51.70;;;;;;5040142;28;20449;-83
2022/07/23 14:12:35;;;;;;;8.00;7.40;;;32.20;53.50;;;;;;5050823;28;20505;-83
2022/07/23 14:15:03;;;;;;;8.93;8.33;;;32.10;54.80;;;;;;5034563;28;20465;-81
2022/07/23 14:17:31;;;;;;;9.07;8.47;;;32.10;53.60;;;;;;5049139;28;20851;-81
2022/07/23 14:19:58;;;;;;;9.43;8.83;;;32.00;53.30;;;;;;5061988;28;20451;-82